• Join FlightAware (Why Join?)
  • Login
  • US Flag 
10:28PM EDT


 

Airport Tracker/Info


-or-


 

Live Flight TrackerFlight Track Log ✈ SWA720 ✈ 12-Jul-2013 ✈ KBWI - KMHT

Flight Track Log - Related Links

Times and Time Zones

All times are in EDT time to prevent confusion due to time zone crossing. See the SWA720 flight status page for this flight to view local times or setup timezone preferences in your user account.

Time Position Orientation Groundspeed Altitude Reporting Facility
EDT Latitude Longitude Course Direction KTS MPH feet Rate Location/Type
07:20AM 39.1533 -76.7800 90° East 190 219 4,000  Level Washington Center
07:21AM 39.1103 -76.7178 132° Southeast 116 133 6,900 3,300 Climbing Washington Center
07:22AM 39.1194 -76.6217 83° East 158 182 10,600 3,360 Climbing Washington Center
07:23AM 39.1267 -76.5094 85° East 233 268 13,600 2,100 Climbing Washington Center
07:24AM 39.1317 -76.3969 87° East 275 316 14,900 1,140 Climbing Washington Center
07:25AM 39.1667 -76.6058 90° East  Level FlightAware Approximate
07:25AM 39.1469 -76.2633 82° East 317 365 16,000  Level Washington Center
07:26AM 39.1644 -76.1350 80° East 341 392 15,900 300 Descending Washington Center
07:27AM 39.1753 -76.0092 84° East 354 407 16,600 1,560 Climbing Washington Center
07:28AM 39.2006 -75.8808 76° East 354 407 19,100 2,280 Climbing Washington Center
07:29AM 39.2758 -75.7767 47° Northeast 373 429 21,700 2,280 Climbing Washington Center
07:30AM 39.3719 -75.6481 46° Northeast 391 450 24,200 2,280 Climbing Washington Center
07:31AM 39.4594 -75.5378 44° Northeast 413 475 26,200 1,800 Climbing Washington Center
07:32AM 39.5489 -75.4192 46° Northeast 437 503 27,900 1,560 Climbing Washington Center
07:33AM 39.6422 -75.2978 45° Northeast 449 517 29,400 1,440 Climbing Washington Center
07:34AM 39.7667 -75.1189 48° Northeast 474 545 31,200 1,740 Climbing New York Center
07:35AM 39.8611 -74.9842 48° Northeast 497 572 33,400 1,860 Climbing New York Center
07:36AM 39.9717 -74.8608 41° Northeast 497 572 35,000 780 Climbing New York Center
07:37AM 40.0775 -74.7586 36° Northeast 492 566 35,000  Level New York Center
07:38AM 40.1786 -74.6639 36° Northeast 492 566 35,000  Level New York Center
07:39AM 40.3033 -74.5458 36° Northeast 497 572 35,000  Level New York Center
07:40AM 40.4108 -74.4400 37° Northeast 497 572 35,000  Level New York Center
07:41AM 40.5183 -74.3311 38° Northeast 497 572 35,000  Level New York Center
07:42AM 40.6297 -74.2275 35° Northeast 497 572 35,000  Level New York Center
07:43AM 40.7369 -74.1206 37° Northeast 492 566 35,000  Level New York Center
07:45AM 40.9900 -73.9442 28° Northeast 470 541 35,000  Level Boston Center
07:46AM 41.1233 -73.9336 North 465 535 35,000  Level Boston Center
07:47AM 41.2528 -73.9256 North 465 535 35,000  Level Boston Center
07:48AM 41.3861 -73.9147 North 465 535 35,000  Level Boston Center
07:49AM 41.5197 -73.9011 North 471 542 35,000 -120 Level Boston Center
07:50AM 41.6553 -73.8933 North 476 548 34,800 -600 Descending Boston Center
07:51AM 41.7597 -73.8844 North 476 548 33,900 -900 Descending Boston Center
07:52AM 41.9286 -73.8744 North 476 548 33,000 -900 Descending Boston Center
07:53AM 42.0400 -73.8042 25° Northeast 447 514 32,100 -900 Descending Boston Center
07:54AM 42.1125 -73.6686 54° Northeast 445 512 31,200 -960 Descending Boston Center
07:55AM 42.1869 -73.5189 56° Northeast 461 531 30,200 -1,020 Descending Boston Center
07:56AM 42.2589 -73.3769 56° Northeast 466 536 29,200 -1,500 Descending Boston Center
07:57AM 42.3331 -73.2264 56° Northeast 445 512 27,200 -1,860 Descending Boston Center
07:58AM 42.3964 -73.0981 56° Northeast 457 526 25,500 -1,800 Descending Boston Center
07:59AM 42.4617 -72.9664 56° Northeast 436 502 23,600 -1,920 Descending Boston Center
08:00AM 42.5247 -72.8431 55° Northeast 413 475 21,700 -1,920 Descending Boston Center
08:01AM 42.5711 -72.7108 64° Northeast 398 458 19,800 -1,980 Descending Boston Center
08:02AM 42.6192 -72.5669 66° East 374 430 17,800 -1,920 Descending Boston Center
08:03AM 42.6608 -72.4428 65° Northeast 369 425 16,000 -1,860 Descending Boston Center
08:04AM 42.7006 -72.3186 66° East 358 412 14,100 -1,740 Descending Boston Center
08:05AM 42.7294 -72.2139 69° East 343 395 12,600 -1,680 Descending Boston Center
08:06AM 42.7686 -72.0867 67° East 329 379 10,800 -1,440 Descending Boston Center
08:07AM 42.8017 -71.9903 65° Northeast 311 358 9,800 -1,320 Descending Boston Center
08:08AM 42.8389 -71.8850 64° Northeast 282 325 8,200 -1,800 Descending Boston Center
08:09AM 42.8697 -71.8028 63° Northeast 275 316 6,200 -1,920 Descending Boston Center
08:10AM 42.8919 -71.7006 73° East 265 305 4,400 -1,380 Descending Boston Center
08:11AM 42.8686 -71.6272 113° Southeast 230 265 3,500 -1,200 Descending Boston Center
08:12AM 42.8678 -71.5419 91° East 208 239 2,000 -1,080 Descending Boston Center
08:13AM 42.8903 -71.4964 56° Northeast 167 192 1,400 -720 Descending Boston Center
08:14AM 42.9192 -71.4592 43° Northeast 134 154 600 -540 Descending Boston Center
08:15AM 42.9439 -71.4219 48° Northeast 134 154 400 9,180 Descending Boston Center
08:16AM 42.9708 -71.3844 46° Northeast 134 154 19,000 9,300 Climbing Boston Center
08:17AM 42.9953 -71.3500 46° Northeast 134 154 19,000  Level Boston Center
08:18AM 43.0222 -71.3128 45° Northeast 134 154 19,000  Level Boston Center
08:19AM 43.0261 -71.3069 48° Northeast 134 154 19,000  Level Boston Center
08:21AM 42.9381 -71.4285 222° Southwest  Level Estimated
08:28AM 42.9328 -71.4358 222° Southwest  Level Estimated
08:29AM 42.9328 -71.4358 222° Southwest  Level Estimated
08:30AM 42.9328 -71.4358 222° Southwest  Level Estimated
08:31AM 42.9328 -71.4358 222° Southwest  Level Estimated
08:32AM 42.9328 -71.4358 222° Southwest  Level Estimated
08:33AM 42.9328 -71.4358 222° Southwest  Level Estimated